Terminal Aerodrome Forecast
Issued by NWS Missoula, MT

Current Version | Previous Version | Text Only | Print | Product List | Glossary On
Versions: 1 2 3 4 5 6 7 8 9 10 11 12 13 14 15
000
FTUS45 KMSO 201120
TAFGPI
TAF
KGPI 201120Z 2012/2112 00000KT 2SM BR BKN003
      TEMPO 2012/2015 3/4SM BR BKN002
     FM201500 00000KT 6SM BR SCT005
     FM201600 18006KT P6SM SKC=

USA.gov is the U.S. government's official web portal to all federal, state and local government web resources and services.